createdAt,value
2023-05-01T00:01:20.943Z,62.56
2023-05-01T00:03:51.285Z,62.79
2023-05-01T00:06:21.619Z,62.62
2023-05-01T00:08:51.782Z,62.53
2023-05-01T00:11:22.297Z,62.76
2023-05-01T00:13:53.222Z,62.42
2023-05-01T00:16:23.553Z,62.81
2023-05-01T00:18:54.008Z,62.33
2023-05-01T00:21:24.245Z,62.72
2023-05-01T00:23:54.524Z,62.74
2023-05-01T00:26:24.776Z,62.84
2023-05-01T00:28:55.623Z,63.31
2023-05-01T00:31:28.979Z,62.93
2023-05-01T00:33:59.377Z,63.28
2023-05-01T00:36:30.189Z,63.03
2023-05-01T00:39:00.381Z,63.32
2023-05-01T00:41:30.511Z,63.20
2023-05-01T00:44:01.071Z,62.90
2023-05-01T00:46:32.088Z,63.02
2023-05-01T00:49:02.947Z,63.23
2023-05-01T00:51:34.460Z,63.22
2023-05-01T00:54:05.098Z,63.27
2023-05-01T00:56:35.340Z,63.47
2023-05-01T00:59:06.017Z,63.13
2023-05-01T01:01:37.084Z,63.33
2023-05-01T01:04:10.609Z,63.72
2023-05-01T01:06:41.381Z,64.01
2023-05-01T01:09:23.594Z,64.01
2023-05-01T01:12:12.795Z,64.00
2023-05-01T01:15:00.456Z,63.55
2023-05-01T01:17:49.458Z,64.02
2023-05-01T01:20:20.177Z,63.90
2023-05-01T01:22:54.467Z,63.94
2023-05-01T01:25:37.866Z,63.85
2023-05-01T01:28:07.977Z,63.73
2023-05-01T01:30:50.533Z,63.47
2023-05-01T01:33:41.328Z,63.70
2023-05-01T01:36:19.526Z,63.67
2023-05-01T01:38:56.418Z,63.65
2023-05-01T01:41:31.794Z,63.10
2023-05-01T01:44:22.240Z,63.28
2023-05-01T01:46:54.711Z,63.02
2023-05-01T01:49:28.414Z,62.69
2023-05-01T01:52:00.962Z,62.68
2023-05-01T01:54:42.818Z,62.47
2023-05-01T01:57:14.977Z,62.17
2023-05-01T01:59:46.189Z,62.04
2023-05-01T02:02:18.121Z,61.80
2023-05-01T02:04:49.984Z,62.00
2023-05-01T02:07:21.040Z,61.62
2023-05-01T02:09:52.379Z,61.75
2023-05-01T02:12:22.832Z,61.33
2023-05-01T02:14:53.613Z,61.26
2023-05-01T02:17:23.889Z,60.84
2023-05-01T02:19:56.711Z,60.83
2023-05-01T02:22:28.163Z,60.63
2023-05-01T02:24:59.767Z,60.48
2023-05-01T02:27:36.011Z,60.39
2023-05-01T02:30:06.989Z,57.97
2023-05-01T02:32:37.682Z,58.23
2023-05-01T02:35:08.940Z,58.47
2023-05-01T02:37:39.935Z,58.26
2023-05-01T02:40:10.948Z,58.26
2023-05-01T02:42:41.608Z,58.23
2023-05-01T02:45:12.937Z,58.23
2023-05-01T02:47:44.751Z,57.68
2023-05-01T02:50:16.683Z,56.90
2023-05-01T02:52:48.039Z,55.99
2023-05-01T02:55:38.646Z,56.06
2023-05-01T02:58:08.777Z,55.64
2023-05-01T03:00:38.959Z,55.50
2023-05-01T03:03:09.106Z,55.17
2023-05-01T03:05:40.238Z,55.17
2023-05-01T03:08:12.953Z,55.17
2023-05-01T03:10:46.158Z,55.29
2023-05-01T03:13:16.417Z,54.93
2023-05-01T03:15:47.183Z,54.64
2023-05-01T03:18:17.692Z,54.83
2023-05-01T03:21:03.475Z,55.15
2023-05-01T03:23:34.415Z,54.57
2023-05-01T03:26:05.390Z,54.71
2023-05-01T03:28:35.479Z,52.85
2023-05-01T03:31:05.847Z,52.06
2023-05-01T03:33:37.235Z,51.21
2023-05-01T03:36:08.074Z,52.04
2023-05-01T03:38:38.789Z,51.41
2023-05-01T03:41:14.628Z,51.26
2023-05-01T03:43:44.994Z,50.71
2023-05-01T03:46:25.788Z,50.39
2023-05-01T03:48:56.676Z,50.53
2023-05-01T03:51:28.717Z,50.84
2023-05-01T03:54:00.260Z,50.10
2023-05-01T03:56:37.956Z,49.99
2023-05-01T03:59:09.463Z,49.78
2023-05-01T04:01:41.004Z,50.05
2023-05-01T04:04:11.364Z,49.05
2023-05-01T04:06:45.103Z,48.39
2023-05-01T04:09:15.550Z,49.14
2023-05-01T04:11:46.102Z,48.84
2023-05-01T04:14:16.305Z,49.44
2023-05-01T04:16:46.497Z,49.72
2023-05-01T04:19:17.581Z,50.18
2023-05-01T04:21:49.904Z,50.60
2023-05-01T04:24:20.405Z,51.11
2023-05-01T04:26:51.183Z,51.15
2023-05-01T04:29:21.542Z,51.26
2023-05-01T04:31:52.204Z,51.63
2023-05-01T04:34:23.118Z,51.20
2023-05-01T04:36:53.333Z,51.00
2023-05-01T04:39:23.732Z,50.99
2023-05-01T04:41:54.529Z,50.74
2023-05-01T04:44:25.002Z,50.86
2023-05-01T04:46:55.408Z,50.57
2023-05-01T04:49:25.538Z,50.49
2023-05-01T04:51:55.754Z,50.66
2023-05-01T04:54:29.374Z,50.48
2023-05-01T04:56:59.690Z,50.35
2023-05-01T04:59:30.881Z,50.17
2023-05-01T05:02:01.276Z,50.50
2023-05-01T05:04:31.745Z,50.47
2023-05-01T05:07:02.074Z,50.26
2023-05-01T05:09:51.033Z,50.58
2023-05-01T05:12:21.238Z,50.27
2023-05-01T05:14:51.530Z,50.52
2023-05-01T05:17:22.244Z,50.28
2023-05-01T05:19:53.209Z,50.22
2023-05-01T05:22:23.588Z,49.75
2023-05-01T05:25:17.629Z,49.72
2023-05-01T05:27:47.764Z,49.47
2023-05-01T05:30:18.337Z,49.25
2023-05-01T05:32:49.378Z,49.29
2023-05-01T05:35:19.756Z,48.60
2023-05-01T05:37:50.682Z,48.43
2023-05-01T05:40:21.061Z,48.52
2023-05-01T05:42:59.966Z,48.67
2023-05-01T05:45:35.105Z,48.23
2023-05-01T05:48:06.387Z,47.97
2023-05-01T05:50:42.431Z,48.05
2023-05-01T05:53:14.770Z,47.96
2023-05-01T05:55:47.527Z,47.90
2023-05-01T05:58:21.448Z,47.73
2023-05-01T06:00:54.540Z,47.27
2023-05-01T06:03:25.254Z,47.75
2023-05-01T06:05:58.316Z,46.92
2023-05-01T06:08:28.849Z,47.24
2023-05-01T06:11:00.476Z,46.52
2023-05-01T06:13:30.712Z,46.79
2023-05-01T06:16:01.172Z,46.26
2023-05-01T06:18:31.915Z,46.10
2023-05-01T06:21:03.055Z,46.12
2023-05-01T06:23:35.618Z,45.83
2023-05-01T06:26:27.569Z,46.33
2023-05-01T06:28:57.949Z,45.84
2023-05-01T06:31:29.407Z,45.75
2023-05-01T06:34:00.511Z,45.71
2023-05-01T06:36:48.834Z,45.71
2023-05-01T06:39:19.458Z,45.51
2023-05-01T06:41:49.950Z,45.34
2023-05-01T06:44:27.966Z,44.99
2023-05-01T06:47:00.103Z,45.14
2023-05-01T06:49:30.438Z,45.12
2023-05-01T06:52:00.677Z,44.79
2023-05-01T06:54:30.887Z,44.38
2023-05-01T06:57:01.132Z,44.06
2023-05-01T06:59:31.255Z,44.08
2023-05-01T07:02:01.763Z,44.16
2023-05-01T07:04:33.409Z,44.61
2023-05-01T07:07:04.602Z,43.93
2023-05-01T07:09:35.383Z,44.35
2023-05-01T07:12:05.672Z,44.09
2023-05-01T07:14:38.777Z,44.39
2023-05-01T07:17:10.695Z,44.64
2023-05-01T07:19:41.031Z,44.85
2023-05-01T07:22:11.328Z,44.30
2023-05-01T07:24:41.515Z,44.73
2023-05-01T07:27:11.795Z,44.26
2023-05-01T07:29:42.192Z,44.73
2023-05-01T07:32:12.725Z,44.25
2023-05-01T07:34:43.002Z,44.27
2023-05-01T07:37:13.728Z,44.82
2023-05-01T07:39:43.887Z,44.95
2023-05-01T07:42:14.169Z,44.60
2023-05-01T07:44:44.733Z,44.38
2023-05-01T07:47:14.957Z,44.67
2023-05-01T07:49:45.201Z,44.15
2023-05-01T07:52:16.963Z,42.19
2023-05-01T07:54:53.076Z,40.20
2023-05-01T07:57:24.751Z,40.91
2023-05-01T07:59:58.569Z,41.29
2023-05-01T08:02:29.087Z,42.03
2023-05-01T08:05:00.867Z,42.18
2023-05-01T08:07:33.293Z,42.08
2023-05-01T08:10:04.184Z,42.55
2023-05-01T08:12:34.603Z,43.47
2023-05-01T08:15:04.820Z,43.65
2023-05-01T08:17:35.193Z,43.81
2023-05-01T08:20:06.121Z,43.51
2023-05-01T08:22:36.193Z,44.08
2023-05-01T08:25:07.286Z,44.27
2023-05-01T08:27:37.660Z,43.97
2023-05-01T08:30:08.768Z,44.56
2023-05-01T08:32:38.870Z,44.69
2023-05-01T08:35:09.151Z,44.25
2023-05-01T08:37:39.921Z,44.36
2023-05-01T08:40:10.494Z,44.55
2023-05-01T08:42:40.763Z,45.21
2023-05-01T08:45:12.089Z,44.90
2023-05-01T08:47:42.273Z,45.41
2023-05-01T08:50:15.472Z,45.00
2023-05-01T08:52:46.277Z,45.46
2023-05-01T08:55:17.137Z,45.59
2023-05-01T08:57:48.462Z,45.70
2023-05-01T09:00:22.552Z,45.08
2023-05-01T09:02:53.758Z,45.28
2023-05-01T09:05:24.038Z,45.79
2023-05-01T09:07:54.830Z,45.79
2023-05-01T09:10:26.486Z,45.97
2023-05-01T09:12:59.074Z,45.51
2023-05-01T09:15:29.722Z,46.04
2023-05-01T09:18:03.475Z,45.98
2023-05-01T09:20:38.572Z,46.16
2023-05-01T09:23:08.742Z,45.70
2023-05-01T09:25:39.430Z,45.69
2023-05-01T09:28:09.992Z,46.47
2023-05-01T09:30:40.897Z,46.41
2023-05-01T09:33:12.533Z,46.11
2023-05-01T09:35:56.247Z,46.14
2023-05-01T09:38:27.889Z,47.41
2023-05-01T09:41:05.159Z,48.41
2023-05-01T09:43:35.846Z,47.80
2023-05-01T09:46:08.183Z,48.50
2023-05-01T09:48:39.065Z,48.43
2023-05-01T09:51:22.326Z,49.02
2023-05-01T09:53:53.859Z,48.49
2023-05-01T09:56:25.309Z,48.91
2023-05-01T09:58:56.468Z,48.84
2023-05-01T10:01:43.207Z,50.34
2023-05-01T10:04:13.980Z,50.27
2023-05-01T10:06:44.653Z,50.90
2023-05-01T10:09:28.206Z,51.65
2023-05-01T10:11:58.963Z,51.02
2023-05-01T10:14:31.113Z,51.54
2023-05-01T10:17:01.502Z,51.72
2023-05-01T10:19:32.496Z,51.01
2023-05-01T10:22:03.108Z,50.12
2023-05-01T10:24:33.786Z,49.92
2023-05-01T10:27:06.970Z,50.41
2023-05-01T10:29:39.895Z,50.06
2023-05-01T10:32:11.463Z,50.54
2023-05-01T10:34:44.254Z,50.65
2023-05-01T10:37:40.761Z,50.17
2023-05-01T10:40:29.187Z,50.66
2023-05-01T10:43:18.196Z,50.47
2023-05-01T10:45:51.137Z,51.00
2023-05-01T10:48:45.154Z,50.30
2023-05-01T10:51:17.105Z,50.99
2023-05-01T10:53:48.845Z,50.95
2023-05-01T10:56:28.548Z,50.62
2023-05-01T10:59:00.220Z,50.96
2023-05-01T11:01:36.408Z,50.94
2023-05-01T11:04:09.698Z,50.98
2023-05-01T11:06:39.990Z,50.60
2023-05-01T11:09:28.873Z,51.26
2023-05-01T11:11:59.180Z,51.57
2023-05-01T11:14:29.319Z,51.89
2023-05-01T11:16:59.571Z,52.64
2023-05-01T11:19:30.244Z,52.47
2023-05-01T11:22:00.588Z,52.41
2023-05-01T11:24:37.117Z,52.25
2023-05-01T11:27:08.753Z,54.00
2023-05-01T11:29:39.665Z,54.56
2023-05-01T11:32:11.054Z,54.90
2023-05-01T11:34:41.332Z,53.74
2023-05-01T11:37:11.471Z,53.19
2023-05-01T11:39:48.509Z,53.33
2023-05-01T11:42:21.837Z,52.84
2023-05-01T11:45:08.397Z,52.82
2023-05-01T11:47:39.132Z,53.32
2023-05-01T11:50:10.468Z,52.94
2023-05-01T11:52:44.770Z,53.86
2023-05-01T11:55:15.095Z,52.82
2023-05-01T11:57:49.831Z,52.79
2023-05-01T12:00:30.959Z,52.94
2023-05-01T12:03:03.627Z,52.88
2023-05-01T12:05:35.844Z,52.88
2023-05-01T12:08:20.831Z,52.94
2023-05-01T12:10:57.571Z,53.12
2023-05-01T12:13:31.185Z,52.97
2023-05-01T12:16:06.198Z,53.07
2023-05-01T12:18:36.794Z,53.55
2023-05-01T12:21:07.400Z,53.07
2023-05-01T12:23:40.834Z,53.17
2023-05-01T12:26:29.013Z,53.12
2023-05-01T12:29:00.247Z,53.13
2023-05-01T12:31:31.837Z,53.10
2023-05-01T12:34:03.192Z,53.20
2023-05-01T12:36:36.006Z,53.53
2023-05-01T12:39:08.553Z,53.02
2023-05-01T12:41:42.199Z,53.05
2023-05-01T12:44:25.384Z,53.46
2023-05-01T12:46:55.870Z,53.58
2023-05-01T12:49:27.654Z,53.42
2023-05-01T12:52:05.053Z,53.17
2023-05-01T12:54:46.488Z,53.58
2023-05-01T12:57:18.106Z,53.20
2023-05-01T13:00:01.053Z,53.40
2023-05-01T13:02:43.750Z,53.60
2023-05-01T13:05:14.160Z,53.32
2023-05-01T13:07:50.036Z,53.58
2023-05-01T13:10:31.498Z,53.55
2023-05-01T13:13:01.802Z,53.30
2023-05-01T13:15:32.086Z,53.39
2023-05-01T13:18:06.828Z,53.90
2023-05-01T13:20:40.430Z,53.70
2023-05-01T13:23:16.847Z,53.54
2023-05-01T13:26:05.595Z,53.55
2023-05-01T13:28:37.752Z,53.69
2023-05-01T13:31:13.301Z,53.89
2023-05-01T13:33:44.688Z,53.59
2023-05-01T13:36:25.058Z,53.39
2023-05-01T13:38:57.627Z,53.86
2023-05-01T13:41:31.779Z,53.32
2023-05-01T13:44:21.039Z,53.49
2023-05-01T13:46:51.588Z,53.95
2023-05-01T13:49:27.083Z,53.63
2023-05-01T13:51:57.394Z,54.09
2023-05-01T13:54:28.512Z,53.81
2023-05-01T13:56:59.345Z,53.59
2023-05-01T13:59:33.998Z,54.00
2023-05-01T14:02:09.462Z,54.04
2023-05-01T14:04:42.437Z,53.66
2023-05-01T14:07:13.831Z,54.03
2023-05-01T14:09:45.228Z,54.11
2023-05-01T14:12:16.352Z,53.70
2023-05-01T14:14:49.271Z,53.69
2023-05-01T14:17:19.475Z,54.22
2023-05-01T14:20:02.490Z,54.19
2023-05-01T14:22:49.560Z,53.99
2023-05-01T14:25:36.388Z,54.24
2023-05-01T14:28:13.969Z,54.04
2023-05-01T14:30:44.438Z,54.20
2023-05-01T14:33:15.147Z,54.41
2023-05-01T14:36:08.000Z,54.14
2023-05-01T14:39:28.526Z,54.07
2023-05-01T14:42:27.684Z,54.11
2023-05-01T14:44:58.036Z,54.27
2023-05-01T14:47:28.615Z,54.42
2023-05-01T14:49:58.876Z,54.10
2023-05-01T14:52:29.317Z,53.99
2023-05-01T14:55:00.271Z,54.33
2023-05-01T14:57:30.840Z,54.33
2023-05-01T15:00:01.233Z,54.20
2023-05-01T15:02:32.443Z,54.44
2023-05-01T15:05:03.046Z,54.37
2023-05-01T15:07:33.599Z,54.45
2023-05-01T15:10:04.612Z,54.35
2023-05-01T15:12:34.781Z,54.46
2023-05-01T15:15:05.455Z,54.10
2023-05-01T15:17:36.178Z,54.57
2023-05-01T15:20:07.305Z,54.37
2023-05-01T15:22:39.586Z,54.17
2023-05-01T15:25:12.410Z,54.41
2023-05-01T15:27:43.943Z,54.46
2023-05-01T15:30:16.494Z,54.51
2023-05-01T15:32:46.689Z,54.91
2023-05-01T15:35:18.126Z,54.60
2023-05-01T15:37:49.168Z,54.45
2023-05-01T15:40:20.005Z,54.63
2023-05-01T15:42:50.558Z,54.39
2023-05-01T15:45:21.878Z,54.57
2023-05-01T15:47:52.126Z,54.40
2023-05-01T15:50:22.406Z,54.28
2023-05-01T15:52:53.849Z,54.37
2023-05-01T15:55:24.171Z,54.68
2023-05-01T15:57:54.825Z,54.48
2023-05-01T16:00:25.047Z,54.51
2023-05-01T16:02:55.291Z,54.41
2023-05-01T16:05:26.834Z,54.64
2023-05-01T16:07:57.608Z,54.64
2023-05-01T16:10:27.726Z,54.58
2023-05-01T16:12:57.913Z,54.52
2023-05-01T16:15:28.212Z,54.45
2023-05-01T16:17:58.757Z,54.76
2023-05-01T16:20:31.177Z,54.73
2023-05-01T16:23:01.911Z,54.85
2023-05-01T16:25:32.101Z,54.61
2023-05-01T16:28:02.239Z,54.58
2023-05-01T16:30:33.008Z,54.60
2023-05-01T16:33:04.514Z,54.62
2023-05-01T16:35:35.618Z,54.73
2023-05-01T16:38:07.060Z,54.81
2023-05-01T16:40:40.547Z,54.83
2023-05-01T16:43:10.804Z,54.88
2023-05-01T16:45:41.236Z,54.78
2023-05-01T16:48:11.802Z,54.81
2023-05-01T16:50:42.881Z,54.79
2023-05-01T16:53:13.018Z,54.83
2023-05-01T16:55:43.273Z,54.80
2023-05-01T16:58:13.522Z,54.86
2023-05-01T17:00:44.742Z,54.80
2023-05-01T17:03:16.466Z,55.30
2023-05-01T17:05:46.691Z,54.69
2023-05-01T17:08:17.073Z,54.81
2023-05-01T17:10:47.348Z,54.94
2023-05-01T17:13:17.887Z,55.08
2023-05-01T17:15:48.323Z,54.96
2023-05-01T17:18:18.445Z,54.85
2023-05-01T17:20:50.000Z,54.94
2023-05-01T17:23:20.176Z,55.24
2023-05-01T17:25:50.847Z,54.95
2023-05-01T17:28:21.082Z,55.07
2023-05-01T17:30:51.489Z,55.16
2023-05-01T17:33:21.625Z,55.16
2023-05-01T17:35:53.380Z,54.82
2023-05-01T17:38:23.445Z,54.92
2023-05-01T17:40:53.820Z,54.95
2023-05-01T17:43:23.957Z,54.94
2023-05-01T17:45:54.439Z,55.05
2023-05-01T17:48:25.137Z,54.95
2023-05-01T17:50:57.294Z,55.02
2023-05-01T17:53:28.011Z,54.80
2023-05-01T17:55:58.315Z,54.79
2023-05-01T17:58:29.211Z,55.18
2023-05-01T18:00:59.450Z,55.40
2023-05-01T18:03:30.176Z,55.42
2023-05-01T18:06:02.564Z,55.10
2023-05-01T18:08:32.932Z,55.21
2023-05-01T18:11:03.309Z,55.32
2023-05-01T18:13:39.294Z,55.12
2023-05-01T18:16:10.109Z,55.14
2023-05-01T18:18:40.376Z,55.24
2023-05-01T18:21:10.562Z,55.16
2023-05-01T18:23:41.452Z,55.50
2023-05-01T18:26:12.099Z,55.15
2023-05-01T18:28:42.198Z,55.38
2023-05-01T18:31:12.530Z,55.33
2023-05-01T18:33:42.769Z,55.30
2023-05-01T18:36:13.114Z,55.42
2023-05-01T18:38:43.468Z,55.32
2023-05-01T18:41:13.733Z,55.60
2023-05-01T18:43:43.919Z,55.68
2023-05-01T18:46:14.169Z,55.51
2023-05-01T18:48:44.656Z,55.46
2023-05-01T18:51:16.213Z,55.83
2023-05-01T18:53:46.409Z,55.72
2023-05-01T18:56:16.678Z,55.67
2023-05-01T18:58:47.477Z,55.72
2023-05-01T19:01:17.667Z,55.78
2023-05-01T19:03:48.346Z,55.90
2023-05-01T19:06:19.016Z,55.79
2023-05-01T19:08:49.152Z,55.75
2023-05-01T19:11:19.320Z,55.69
2023-05-01T19:13:50.111Z,55.79
2023-05-01T19:16:20.256Z,55.85
2023-05-01T19:18:50.339Z,55.92
2023-05-01T19:21:20.965Z,55.74
2023-05-01T19:23:51.569Z,56.03
2023-05-01T19:26:22.325Z,56.00
2023-05-01T19:28:53.025Z,56.19
2023-05-01T19:31:23.079Z,56.18
2023-05-01T19:33:55.215Z,56.13
2023-05-01T19:36:25.360Z,56.25
2023-05-01T19:38:55.822Z,56.00
2023-05-01T19:41:26.254Z,56.35
2023-05-01T19:43:56.448Z,56.20
2023-05-01T19:46:26.754Z,56.26
2023-05-01T19:48:56.961Z,56.32
2023-05-01T19:51:27.838Z,56.16
2023-05-01T19:53:58.409Z,56.34
2023-05-01T19:56:28.619Z,56.53
2023-05-01T19:58:59.066Z,56.65
2023-05-01T20:01:31.406Z,56.29
2023-05-01T20:04:02.205Z,56.45
2023-05-01T20:06:32.696Z,56.31
2023-05-01T20:09:02.794Z,56.30
2023-05-01T20:11:33.508Z,56.52
2023-05-01T20:14:05.043Z,56.72
2023-05-01T20:16:37.195Z,56.50
2023-05-01T20:19:07.767Z,56.65
2023-05-01T20:21:38.521Z,56.54
2023-05-01T20:24:09.697Z,56.74
2023-05-01T20:26:39.851Z,56.73
2023-05-01T20:29:10.848Z,56.52
2023-05-01T20:31:40.948Z,56.82
2023-05-01T20:34:11.446Z,56.59
2023-05-01T20:36:41.563Z,56.62
2023-05-01T20:39:11.724Z,56.70
2023-05-01T20:41:41.845Z,56.89
2023-05-01T20:44:12.850Z,56.90
2023-05-01T20:46:44.253Z,56.79
2023-05-01T20:49:16.036Z,56.56
2023-05-01T20:51:46.376Z,56.90
2023-05-01T20:54:16.732Z,56.78
2023-05-01T20:56:47.000Z,56.82
2023-05-01T20:59:17.307Z,56.91
2023-05-01T21:01:47.469Z,56.91
2023-05-01T21:04:18.059Z,56.92
2023-05-01T21:06:48.335Z,56.97
2023-05-01T21:09:18.849Z,57.05
2023-05-01T21:11:49.210Z,56.96
2023-05-01T21:14:19.322Z,57.04
2023-05-01T21:16:49.710Z,57.04
2023-05-01T21:19:19.804Z,57.11
2023-05-01T21:21:49.954Z,57.11
2023-05-01T21:24:25.476Z,57.08
2023-05-01T21:26:56.210Z,57.14
2023-05-01T21:29:26.294Z,57.13
2023-05-01T21:31:56.479Z,56.98
2023-05-01T21:34:26.741Z,57.16
2023-05-01T21:36:57.125Z,57.25
2023-05-01T21:39:27.573Z,57.20
2023-05-01T21:41:57.830Z,57.36
2023-05-01T21:44:30.963Z,57.28
2023-05-01T21:47:03.145Z,57.42
2023-05-01T21:49:34.067Z,57.17
2023-05-01T21:52:04.265Z,57.15
2023-05-01T21:54:36.182Z,57.38
2023-05-01T21:57:08.976Z,57.38
2023-05-01T21:59:40.146Z,57.11
2023-05-01T22:02:11.250Z,57.27
2023-05-01T22:04:42.198Z,57.54
2023-05-01T22:07:12.661Z,57.50
2023-05-01T22:09:43.944Z,57.38
2023-05-01T22:12:13.977Z,57.36
2023-05-01T22:14:47.465Z,57.26
2023-05-01T22:17:25.236Z,57.37
2023-05-01T22:19:55.392Z,57.49
2023-05-01T22:22:25.511Z,57.44
2023-05-01T22:24:55.697Z,57.68
2023-05-01T22:27:26.367Z,57.51
2023-05-01T22:29:56.547Z,57.30
2023-05-01T22:32:26.787Z,57.42
2023-05-01T22:34:57.084Z,57.46
2023-05-01T22:37:27.952Z,57.29
2023-05-01T22:39:58.828Z,57.28
2023-05-01T22:42:29.290Z,57.31
2023-05-01T22:44:59.370Z,57.62
2023-05-01T22:47:29.619Z,57.39
2023-05-01T22:50:00.213Z,57.56
2023-05-01T22:52:30.691Z,57.57
2023-05-01T22:55:00.862Z,57.38
2023-05-01T22:57:31.231Z,57.33
2023-05-01T23:00:01.998Z,57.53
2023-05-01T23:02:37.752Z,58.63
2023-05-01T23:05:09.284Z,58.56
2023-05-01T23:07:39.605Z,58.49
2023-05-01T23:10:10.046Z,58.33
2023-05-01T23:12:47.319Z,57.02
2023-05-01T23:15:19.897Z,56.82
2023-05-01T23:17:50.013Z,56.70
2023-05-01T23:20:22.257Z,56.45
2023-05-01T23:22:53.208Z,56.53
2023-05-01T23:25:27.239Z,56.46
2023-05-01T23:27:58.441Z,56.40
2023-05-01T23:30:28.672Z,56.52
2023-05-01T23:33:00.715Z,56.32
2023-05-01T23:35:30.919Z,56.37
2023-05-01T23:38:01.010Z,56.36
2023-05-01T23:40:31.137Z,56.52
2023-05-01T23:43:01.328Z,56.42
2023-05-01T23:45:31.447Z,56.55
2023-05-01T23:48:01.707Z,56.58
2023-05-01T23:50:32.499Z,56.42
2023-05-01T23:53:06.884Z,56.69
2023-05-01T23:55:37.306Z,56.72
2023-05-01T23:58:08.283Z,56.69
